Terminal Aerodrome Forecast
Issued by NWS Wilmington, OH

Current Version | Previous Version | Graphics & Text | Print | Product List | Glossary On
Versions: 1 2 3 4 5 6 7 8 9 10 11 12 13 14 15 16 17 18 19 20 21
167
FTUS41 KILN 140904 AAA
TAFCMH
TAF AMD
KCMH 140904Z 1409/1506 31017G24KT P6SM OVC022
     FM141000 31015G23KT P6SM OVC018
     FM141300 33010KT P6SM BKN022
     FM141900 32006KT P6SM SCT022 OVC200
     FM150200 30003KT P6SM OVC150=

USA.gov is the U.S. government's official web portal to all federal, state and local government web resources and services.